Time;durP1;ratioP1;P1;durP2;ratioP2;P2;SDS_P1;SDS_P2;PMS_P1;PMS_P2;Temp;Humidity;BMP_temperature;BMP_pressure;BME280_temperature;BME280_humidity;BME280_pressure;Samples;Min_cycle;Max_cycle;Signal;HPM_P1;HPM_P2
2022/08/09 00:01:23;;;;;;;3.30;3.00;;;18.50;62.60;;;;;;5013142;28;20037;-60
2022/08/09 00:03:49;;;;;;;3.15;2.67;;;18.50;62.60;;;;;;5009507;28;20034;-63
2022/08/09 00:06:14;;;;;;;2.60;2.42;;;18.40;62.80;;;;;;5016710;28;20413;-63
2022/08/09 00:08:40;;;;;;;3.35;2.40;;;18.40;63.00;;;;;;5014367;28;20030;-63
2022/08/09 00:11:05;;;;;;;3.42;2.30;;;18.40;63.90;;;;;;5012198;28;20029;-64
2022/08/09 00:13:31;;;;;;;2.40;2.20;;;18.40;63.10;;;;;;5006000;28;20038;-63
2022/08/09 00:15:57;;;;;;;2.88;2.60;;;18.40;62.90;;;;;;5003096;28;20030;-62
2022/08/09 00:18:22;;;;;;;2.55;2.30;;;18.50;63.10;;;;;;5004312;28;20045;-62
2022/08/09 00:20:48;;;;;;;3.00;2.80;;;18.40;63.10;;;;;;5004508;28;21468;-63
2022/08/09 00:23:14;;;;;;;2.95;2.63;;;18.30;63.00;;;;;;5004874;28;20030;-63
2022/08/09 00:25:40;;;;;;;5.00;2.80;;;18.30;63.00;;;;;;5002956;28;20087;-63
2022/08/09 00:28:05;;;;;;;3.05;2.85;;;18.20;63.10;;;;;;5009254;28;20045;-63
2022/08/09 00:30:32;;;;;;;6.38;2.90;;;18.20;63.10;;;;;;5005967;28;20041;-62
2022/08/09 00:32:58;;;;;;;3.45;3.15;;;18.10;63.10;;;;;;5005228;28;20063;-63
2022/08/09 00:35:24;;;;;;;3.10;2.90;;;18.10;63.20;;;;;;5004034;28;20073;-62
2022/08/09 00:37:50;;;;;;;3.10;2.90;;;18.00;63.30;;;;;;5007822;28;20088;-63
2022/08/09 00:40:15;;;;;;;3.75;2.83;;;17.90;63.40;;;;;;5008106;28;20555;-62
2022/08/09 00:42:41;;;;;;;3.05;2.85;;;17.80;64.60;;;;;;5001240;28;20069;-64
2022/08/09 00:45:08;;;;;;;2.85;2.65;;;17.70;64.00;;;;;;5000896;28;20112;-63
2022/08/09 00:47:34;;;;;;;2.72;2.55;;;17.60;64.10;;;;;;5001524;28;22010;-64
2022/08/09 00:49:59;;;;;;;3.22;2.80;;;17.60;64.50;;;;;;5003263;28;20045;-62
2022/08/09 00:52:29;;;;;;;2.95;2.75;;;17.40;64.60;;;;;;5002022;28;20498;-62
2022/08/09 00:54:55;;;;;;;3.45;2.90;;;17.40;64.90;;;;;;5002425;28;20048;-63
2022/08/09 00:57:21;;;;;;;3.60;3.30;;;17.30;65.10;;;;;;5000688;28;20054;-61
2022/08/09 00:59:47;;;;;;;3.53;3.05;;;17.30;65.50;;;;;;5005485;28;20046;-62
2022/08/09 01:02:19;;;;;;;3.03;2.83;;;17.30;65.70;;;;;;5002446;28;20442;-63
2022/08/09 01:05:04;;;;;;;3.00;2.80;;;17.20;66.30;;;;;;4998383;28;20429;-62
2022/08/09 01:07:41;;;;;;;2.95;2.75;;;17.10;66.90;;;;;;5004289;28;20061;-62
2022/08/09 01:10:24;;;;;;;4.07;3.20;;;17.10;66.40;;;;;;5001740;28;20579;-62
2022/08/09 01:13:17;;;;;;;3.33;3.03;;;17.10;66.90;;;;;;5006153;28;20112;-62
2022/08/09 01:15:45;;;;;;;3.28;3.08;;;17.00;67.20;;;;;;5008056;28;20083;-63
2022/08/09 01:18:19;;;;;;;5.43;3.03;;;16.90;66.40;;;;;;5005968;28;20034;-62
2022/08/09 01:20:59;;;;;;;3.20;2.95;;;16.90;67.40;;;;;;5004168;28;20445;-64
2022/08/09 01:24:03;;;;;;;3.25;3.05;;;16.80;66.90;;;;;;5006841;28;20081;-63
2022/08/09 01:26:57;;;;;;;3.38;3.00;;;16.80;68.10;;;;;;5010828;28;20077;-65
2022/08/09 01:29:33;;;;;;;3.03;2.83;;;16.80;67.90;;;;;;5011023;28;20037;-63
2022/08/09 01:32:02;;;;;;;3.30;3.00;;;16.80;67.70;;;;;;5003785;28;20037;-65
2022/08/09 01:34:30;;;;;;;2.90;2.70;;;16.80;67.30;;;;;;5002199;28;20033;-63
2022/08/09 01:36:57;;;;;;;3.72;2.90;;;16.80;67.40;;;;;;5004782;28;20049;-63
2022/08/09 01:39:25;;;;;;;3.33;2.63;;;16.80;67.60;;;;;;5003834;28;20073;-63
2022/08/09 01:41:51;;;;;;;2.67;2.50;;;16.80;67.70;;;;;;5007400;28;20410;-62
2022/08/09 01:44:18;;;;;;;2.65;2.53;;;16.90;67.70;;;;;;5005954;28;20071;-62
2022/08/09 01:46:45;;;;;;;4.72;2.70;;;16.90;67.50;;;;;;5003633;28;20050;-62
2022/08/09 01:49:16;;;;;;;3.38;3.08;;;16.90;67.60;;;;;;5007484;28;20441;-63
2022/08/09 01:51:51;;;;;;;3.40;3.20;;;16.90;67.60;;;;;;5005912;28;20046;-62
2022/08/09 01:54:18;;;;;;;3.03;2.83;;;17.00;67.90;;;;;;5004957;28;20362;-62
2022/08/09 01:56:47;;;;;;;2.58;2.47;;;17.00;67.40;;;;;;5001214;28;24066;-62
2022/08/09 01:59:16;;;;;;;2.90;2.70;;;17.00;67.30;;;;;;5008147;28;20037;-62
2022/08/09 02:01:45;;;;;;;4.13;2.75;;;17.10;67.40;;;;;;5007250;28;20030;-63
2022/08/09 02:04:12;;;;;;;3.60;2.90;;;17.10;67.00;;;;;;5000777;28;20026;-62
2022/08/09 02:09:26;;;;;;;3.08;2.50;;;17.10;66.90;;;;;;5013432;28;20460;-62
2022/08/09 02:11:53;;;;;;;3.65;2.60;;;17.10;66.70;;;;;;5007296;28;20029;-62
2022/08/09 02:14:20;;;;;;;3.50;2.75;;;17.00;66.80;;;;;;5010926;28;20137;-61
2022/08/09 02:16:47;;;;;;;2.90;2.60;;;17.00;66.80;;;;;;5008493;28;20712;-61
2022/08/09 02:19:13;;;;;;;4.45;2.78;;;17.00;67.00;;;;;;5008347;28;20068;-60
2022/08/09 02:21:46;;;;;;;2.83;2.63;;;17.00;67.10;;;;;;5013897;28;20128;-61
2022/08/09 02:24:16;;;;;;;3.05;2.85;;;16.90;67.10;;;;;;5013872;28;20030;-63
2022/08/09 02:26:44;;;;;;;3.40;3.10;;;16.90;67.20;;;;;;5005642;28;20560;-63
2022/08/09 02:29:22;;;;;;;3.35;3.05;;;16.90;67.00;;;;;;5014531;28;20072;-63
2022/08/09 02:31:49;;;;;;;3.35;3.15;;;16.90;67.90;;;;;;5013126;28;20088;-63
2022/08/09 02:34:22;;;;;;;3.20;3.00;;;16.80;67.20;;;;;;5010299;28;20064;-63
2022/08/09 02:36:53;;;;;;;3.85;2.80;;;16.80;67.60;;;;;;5013059;28;20034;-63
2022/08/09 02:39:22;;;;;;;3.20;2.90;;;16.70;67.50;;;;;;5012946;28;20080;-61
2022/08/09 02:41:53;;;;;;;3.60;2.45;;;16.70;67.60;;;;;;5015093;28;20037;-62
2022/08/09 02:44:24;;;;;;;3.67;2.75;;;16.70;67.60;;;;;;5015623;28;20038;-62
2022/08/09 02:46:52;;;;;;;2.88;2.67;;;16.70;67.50;;;;;;4998431;28;20057;-61
2022/08/09 02:49:18;;;;;;;2.95;2.75;;;16.60;67.50;;;;;;4991774;28;20406;-63
2022/08/09 02:51:49;;;;;;;3.22;2.97;;;16.60;67.60;;;;;;4994423;28;20026;-63
2022/08/09 02:54:16;;;;;;;2.83;2.65;;;16.60;67.80;;;;;;4992006;28;20125;-62
2022/08/09 02:56:46;;;;;;;3.42;2.90;;;16.60;67.80;;;;;;4997043;28;20397;-62
2022/08/09 02:59:13;;;;;;;2.85;2.65;;;16.60;67.90;;;;;;4998394;28;20038;-62
2022/08/09 03:01:40;;;;;;;3.50;2.75;;;16.60;67.70;;;;;;4999467;28;20409;-62
2022/08/09 03:04:08;;;;;;;2.97;2.67;;;16.60;67.80;;;;;;4998195;28;20034;-63
2022/08/09 03:06:35;;;;;;;2.50;2.40;;;16.60;67.80;;;;;;4993881;28;20034;-62
2022/08/09 03:09:01;;;;;;;3.00;2.75;;;16.60;67.80;;;;;;4997461;28;20461;-62
2022/08/09 03:11:28;;;;;;;2.90;2.70;;;16.70;67.70;;;;;;4993985;28;20096;-62
2022/08/09 03:13:55;;;;;;;3.45;2.90;;;16.70;67.60;;;;;;4996845;28;20022;-62
2022/08/09 03:16:22;;;;;;;2.95;2.65;;;16.70;67.50;;;;;;4998615;28;20129;-61
2022/08/09 03:18:48;;;;;;;3.15;2.85;;;16.70;68.20;;;;;;4997858;28;20049;-63
2022/08/09 03:21:15;;;;;;;3.00;2.80;;;16.70;67.20;;;;;;4996980;28;20240;-64
2022/08/09 03:23:48;;;;;;;3.20;2.90;;;16.70;67.30;;;;;;4998300;28;20112;-63
2022/08/09 03:26:15;;;;;;;3.35;2.55;;;16.70;67.30;;;;;;4990998;28;20050;-63
2022/08/09 03:28:42;;;;;;;2.92;2.63;;;16.70;67.20;;;;;;4989279;28;20044;-62
2022/08/09 03:31:09;;;;;;;2.97;2.78;;;16.70;67.10;;;;;;4986442;28;20038;-63
2022/08/09 03:33:36;;;;;;;3.20;3.00;;;16.70;67.10;;;;;;4992779;28;20580;-63
2022/08/09 03:36:02;;;;;;;3.67;3.38;;;16.70;67.10;;;;;;4988537;28;20041;-63
2022/08/09 03:38:29;;;;;;;3.83;3.00;;;16.70;67.10;;;;;;4990269;28;20458;-64
2022/08/09 03:40:55;;;;;;;3.30;3.10;;;16.70;67.20;;;;;;4985887;28;20030;-63
2022/08/09 03:43:20;;;;;;;3.42;3.20;;;16.70;66.90;;;;;;4990622;28;20034;-62
2022/08/09 03:45:46;;;;;;;3.55;3.22;;;16.70;66.90;;;;;;4993160;28;20035;-61
2022/08/09 03:48:12;;;;;;;3.50;3.20;;;16.70;66.90;;;;;;4994111;28;20271;-63
2022/08/09 03:50:39;;;;;;;3.40;3.20;;;16.60;66.90;;;;;;4992676;28;20041;-61
2022/08/09 03:53:08;;;;;;;4.38;3.50;;;16.60;67.10;;;;;;4990975;28;20514;-62
2022/08/09 03:55:34;;;;;;;3.70;3.40;;;16.50;67.10;;;;;;4992221;28;20418;-63
2022/08/09 03:58:00;;;;;;;3.67;3.38;;;16.50;67.20;;;;;;4991526;28;20044;-61
2022/08/09 04:00:26;;;;;;;3.60;3.30;;;16.40;67.50;;;;;;4991629;28;20043;-61
2022/08/09 04:02:54;;;;;;;3.60;3.30;;;16.40;67.60;;;;;;4991616;28;20049;-61
2022/08/09 04:05:20;;;;;;;4.00;3.67;;;16.40;67.60;;;;;;4991062;28;20121;-62
2022/08/09 04:07:46;;;;;;;3.92;3.50;;;16.40;67.70;;;;;;4992267;28;20129;-62
2022/08/09 04:10:13;;;;;;;3.40;3.20;;;16.40;67.70;;;;;;4993476;28;20049;-61
2022/08/09 04:12:43;;;;;;;3.78;3.45;;;16.40;67.80;;;;;;4986464;28;20097;-63
2022/08/09 04:15:09;;;;;;;3.97;3.60;;;16.40;67.80;;;;;;4991618;28;20087;-61
2022/08/09 04:17:35;;;;;;;3.95;3.65;;;16.40;67.70;;;;;;4992939;28;20043;-61
2022/08/09 04:20:01;;;;;;;4.00;3.63;;;16.40;67.80;;;;;;4991645;28;20042;-63
2022/08/09 04:22:26;;;;;;;4.28;3.88;;;16.40;67.80;;;;;;4990910;28;20070;-63
2022/08/09 04:24:53;;;;;;;4.10;3.70;;;16.40;67.90;;;;;;4990087;28;20455;-60
2022/08/09 04:27:18;;;;;;;5.32;4.50;;;16.40;67.90;;;;;;4994769;28;20046;-63
2022/08/09 04:29:44;;;;;;;4.70;4.28;;;16.30;67.80;;;;;;4989634;28;20108;-63
2022/08/09 04:32:10;;;;;;;4.68;4.28;;;16.30;67.90;;;;;;4990070;28;20073;-63
2022/08/09 04:34:35;;;;;;;4.28;3.95;;;16.20;67.90;;;;;;4991710;28;20137;-61
2022/08/09 04:37:01;;;;;;;4.82;4.43;;;16.10;68.10;;;;;;4991359;28;20037;-62
2022/08/09 04:39:27;;;;;;;4.38;4.07;;;16.10;69.20;;;;;;4990561;28;20125;-63
2022/08/09 04:41:53;;;;;;;4.85;4.30;;;16.10;68.50;;;;;;4995608;28;20089;-62
2022/08/09 04:44:19;;;;;;;5.13;4.65;;;16.00;68.70;;;;;;4985073;28;20038;-63
2022/08/09 04:46:44;;;;;;;4.40;4.10;;;15.90;68.80;;;;;;4986224;28;20104;-62
2022/08/09 04:49:10;;;;;;;5.10;4.40;;;15.90;69.20;;;;;;4989365;28;20037;-63
2022/08/09 04:51:36;;;;;;;5.30;4.47;;;15.80;69.50;;;;;;4984313;28;20062;-61
2022/08/09 04:54:02;;;;;;;5.25;4.28;;;15.80;69.70;;;;;;4985102;28;20033;-62
2022/08/09 04:56:29;;;;;;;5.18;4.78;;;15.70;69.90;;;;;;4982167;28;20081;-63
2022/08/09 04:58:55;;;;;;;4.65;4.25;;;15.70;70.10;;;;;;4981965;28;20477;-62
2022/08/09 05:01:20;;;;;;;4.80;4.20;;;15.70;70.40;;;;;;4989971;28;20118;-62
2022/08/09 05:03:47;;;;;;;4.55;4.22;;;15.70;70.70;;;;;;4989791;28;20053;-60
2022/08/09 05:06:13;;;;;;;4.82;4.43;;;15.70;71.00;;;;;;4991659;28;20034;-63
2022/08/09 05:08:39;;;;;;;4.97;4.47;;;15.70;71.30;;;;;;4988451;28;20065;-63
2022/08/09 05:11:06;;;;;;;5.82;4.07;;;15.80;71.40;;;;;;4988887;28;20173;-65
2022/08/09 05:13:32;;;;;;;5.35;4.85;;;15.80;71.60;;;;;;4993088;28;20031;-64
2022/08/09 05:15:57;;;;;;;5.35;4.95;;;15.90;71.70;;;;;;4990120;28;20030;-62
2022/08/09 05:18:32;;;;;;;4.95;4.55;;;15.90;71.70;;;;;;4991918;28;20072;-62
2022/08/09 05:20:58;;;;;;;6.10;4.68;;;16.00;71.80;;;;;;4992988;28;20034;-62
2022/08/09 05:23:24;;;;;;;6.40;4.50;;;16.10;72.30;;;;;;4989443;28;20552;-63
2022/08/09 05:25:50;;;;;;;5.35;4.80;;;16.20;71.40;;;;;;4989072;28;20038;-63
2022/08/09 05:28:16;;;;;;;8.00;5.00;;;16.20;71.40;;;;;;4993291;28;20626;-62
2022/08/09 05:30:43;;;;;;;4.75;4.35;;;16.30;71.10;;;;;;4989352;28;20042;-63
2022/08/09 05:33:09;;;;;;;4.57;4.18;;;16.40;70.90;;;;;;4990608;28;20038;-62
2022/08/09 05:35:34;;;;;;;5.25;4.28;;;16.40;70.90;;;;;;4984303;28;20045;-62
2022/08/09 05:38:00;;;;;;;8.43;5.00;;;16.50;70.80;;;;;;4989336;28;20146;-63
2022/08/09 05:40:27;;;;;;;5.93;4.47;;;16.60;70.80;;;;;;4993763;28;20038;-62
2022/08/09 05:42:53;;;;;;;10.25;4.95;;;16.70;70.70;;;;;;4981441;28;20136;-62
2022/08/09 05:45:19;;;;;;;7.95;4.65;;;16.80;70.60;;;;;;4986534;28;20035;-63
2022/08/09 05:47:45;;;;;;;7.00;4.90;;;16.90;70.40;;;;;;4982664;28;20529;-62
2022/08/09 05:50:11;;;;;;;7.22;4.82;;;17.00;70.40;;;;;;4990505;28;20586;-60
2022/08/09 05:52:37;;;;;;;6.43;4.72;;;17.00;70.50;;;;;;4984030;28;20038;-62
2022/08/09 05:55:03;;;;;;;7.38;4.80;;;17.10;70.40;;;;;;4988408;28;20035;-62
2022/08/09 05:57:29;;;;;;;7.40;4.45;;;17.20;70.40;;;;;;4985993;28;20068;-62
2022/08/09 05:59:54;;;;;;;7.47;4.60;;;17.30;70.00;;;;;;4982134;28;20035;-63
2022/08/09 06:02:20;;;;;;;5.07;4.57;;;17.40;70.20;;;;;;4984031;28;20466;-62
2022/08/09 06:04:45;;;;;;;9.18;5.10;;;17.50;69.90;;;;;;4980600;28;20035;-61
2022/08/09 06:07:11;;;;;;;9.45;4.82;;;17.50;69.80;;;;;;4980196;28;20074;-63
2022/08/09 06:09:37;;;;;;;4.85;4.40;;;17.60;69.70;;;;;;4988279;28;20030;-62
2022/08/09 06:12:03;;;;;;;5.25;4.32;;;17.60;69.70;;;;;;4985315;28;20035;-62
2022/08/09 06:14:28;;;;;;;5.18;4.60;;;17.70;69.80;;;;;;4990262;28;20034;-62
2022/08/09 06:16:54;;;;;;;5.13;4.63;;;17.80;69.90;;;;;;4991791;28;20038;-62
2022/08/09 06:19:20;;;;;;;5.15;4.70;;;17.80;69.70;;;;;;4992834;28;20425;-62
2022/08/09 06:21:46;;;;;;;4.72;4.30;;;17.90;69.70;;;;;;4992004;28;20041;-62
2022/08/09 06:24:12;;;;;;;4.70;4.30;;;18.00;69.90;;;;;;4990019;28;20050;-62
2022/08/09 06:26:40;;;;;;;4.35;4.05;;;18.00;69.90;;;;;;4989905;28;20034;-60
2022/08/09 06:29:08;;;;;;;4.55;4.18;;;18.10;69.60;;;;;;4990140;28;20042;-62
2022/08/09 06:31:35;;;;;;;5.40;4.90;;;18.20;69.20;;;;;;4991774;28;20081;-61
2022/08/09 06:34:02;;;;;;;4.63;4.30;;;18.30;69.20;;;;;;4991856;28;20065;-62
2022/08/09 06:36:28;;;;;;;4.65;4.35;;;18.30;68.80;;;;;;4991337;28;20506;-63
2022/08/09 06:38:54;;;;;;;5.47;4.20;;;18.40;68.90;;;;;;4991111;28;20062;-63
2022/08/09 06:41:19;;;;;;;4.40;4.00;;;18.50;68.80;;;;;;4991258;28;20042;-63
2022/08/09 06:43:46;;;;;;;4.25;3.95;;;18.60;68.50;;;;;;4990321;28;20533;-63
2022/08/09 06:46:13;;;;;;;4.13;3.40;;;18.70;68.10;;;;;;4986630;28;20035;-63
2022/08/09 06:48:40;;;;;;;4.13;3.83;;;18.70;67.90;;;;;;4991592;28;20038;-62
2022/08/09 06:51:05;;;;;;;3.67;3.33;;;18.80;67.70;;;;;;4991231;28;20869;-63
2022/08/09 06:53:31;;;;;;;4.78;3.63;;;18.90;67.60;;;;;;4994545;28;20037;-63
2022/08/09 06:55:59;;;;;;;3.45;3.25;;;19.00;67.40;;;;;;4994820;28;20038;-62
2022/08/09 06:58:24;;;;;;;3.55;3.25;;;19.10;67.40;;;;;;4992613;28;20409;-62
2022/08/09 07:00:50;;;;;;;4.45;3.33;;;19.20;67.20;;;;;;4993195;28;20034;-63
2022/08/09 07:03:16;;;;;;;3.70;3.45;;;19.20;67.00;;;;;;4993045;28;20034;-62
2022/08/09 07:05:41;;;;;;;3.92;3.28;;;19.30;66.70;;;;;;4993764;28;20529;-61
2022/08/09 07:08:07;;;;;;;3.88;3.58;;;19.40;66.60;;;;;;4996944;28;20179;-63
2022/08/09 07:10:33;;;;;;;3.80;3.50;;;19.50;66.40;;;;;;4992640;28;20494;-62
2022/08/09 07:12:59;;;;;;;3.88;3.58;;;19.60;66.20;;;;;;4992326;28;20043;-62
2022/08/09 07:15:25;;;;;;;3.38;3.00;;;19.70;66.40;;;;;;4994127;28;20134;-62
2022/08/09 07:17:51;;;;;;;3.50;3.20;;;19.80;66.20;;;;;;4994010;28;20053;-63
2022/08/09 07:20:17;;;;;;;3.22;3.03;;;19.90;66.00;;;;;;4995294;28;20031;-62
2022/08/09 07:22:43;;;;;;;3.13;2.92;;;20.00;65.90;;;;;;4993476;28;20045;-62
2022/08/09 07:25:09;;;;;;;3.58;3.22;;;20.00;65.70;;;;;;4993674;28;20046;-63
2022/08/09 07:27:36;;;;;;;4.45;3.35;;;20.10;65.50;;;;;;4994413;28;20042;-61
2022/08/09 07:30:02;;;;;;;3.20;3.00;;;20.20;65.40;;;;;;4993244;28;20066;-63
2022/08/09 07:32:28;;;;;;;3.05;2.70;;;20.40;65.30;;;;;;4991281;28;20134;-60
2022/08/09 07:34:53;;;;;;;3.00;2.65;;;20.40;65.50;;;;;;4994451;28;20029;-62
2022/08/09 07:37:19;;;;;;;2.67;2.40;;;20.40;65.00;;;;;;4996438;28;20050;-64
2022/08/09 07:39:44;;;;;;;2.78;2.45;;;20.70;64.90;;;;;;4995484;28;20030;-61
2022/08/09 07:42:10;;;;;;;2.65;2.13;;;20.80;64.30;;;;;;4991106;28;20037;-64
2022/08/09 07:44:36;;;;;;;3.85;2.28;;;20.90;64.00;;;;;;4993659;28;20122;-63
2022/08/09 07:47:01;;;;;;;2.30;2.10;;;21.00;63.90;;;;;;4991379;28;20100;-62
2022/08/09 07:49:27;;;;;;;2.72;2.17;;;21.10;63.10;;;;;;4992005;28;20061;-63
2022/08/09 07:51:53;;;;;;;2.00;1.90;;;21.20;62.70;;;;;;4992153;28;20108;-63
2022/08/09 07:54:18;;;;;;;2.92;2.10;;;21.30;62.60;;;;;;4992456;28;20407;-62
2022/08/09 07:56:44;;;;;;;2.88;2.20;;;21.40;62.20;;;;;;4993874;28;20049;-63
2022/08/09 07:59:09;;;;;;;2.15;1.98;;;21.60;61.90;;;;;;4993187;28;20185;-63
2022/08/09 08:01:35;;;;;;;2.10;1.90;;;21.60;61.30;;;;;;4988837;28;20748;-63
2022/08/09 08:04:02;;;;;;;1.88;1.77;;;21.70;61.20;;;;;;4989448;28;20045;-63
2022/08/09 08:06:28;;;;;;;2.38;2.17;;;21.80;60.90;;;;;;4991097;28;20042;-62
2022/08/09 08:08:53;;;;;;;1.98;1.80;;;21.90;60.40;;;;;;4995696;28;20038;-61
2022/08/09 08:11:19;;;;;;;2.10;1.90;;;22.00;60.10;;;;;;4988610;28;20161;-64
2022/08/09 08:13:45;;;;;;;2.03;1.85;;;22.10;60.00;;;;;;4993448;28;20034;-63
2022/08/09 08:16:10;;;;;;;2.70;1.90;;;22.20;59.80;;;;;;4991994;28;20883;-62
2022/08/09 08:18:36;;;;;;;1.95;1.85;;;22.30;60.10;;;;;;4997389;28;20579;-63
2022/08/09 08:21:02;;;;;;;1.73;1.55;;;22.40;58.80;;;;;;4992214;28;20030;-63
2022/08/09 08:23:27;;;;;;;2.90;1.60;;;22.50;58.90;;;;;;4994052;28;20170;-62
2022/08/09 08:25:53;;;;;;;4.30;2.00;;;22.60;58.70;;;;;;4993236;28;20026;-63
2022/08/09 08:28:20;;;;;;;2.40;1.80;;;22.70;58.60;;;;;;4993557;28;20499;-63
2022/08/09 08:30:46;;;;;;;2.33;1.90;;;22.80;58.60;;;;;;4991056;28;20537;-63
2022/08/09 08:33:12;;;;;;;2.10;1.98;;;22.90;58.80;;;;;;4990765;28;20574;-62
2022/08/09 08:35:38;;;;;;;2.22;1.95;;;23.00;58.30;;;;;;4992929;28;20129;-63
2022/08/09 08:38:03;;;;;;;1.77;1.52;;;23.00;58.30;;;;;;4992162;28;20136;-62
2022/08/09 08:40:30;;;;;;;2.50;1.80;;;23.20;58.10;;;;;;4996196;28;20038;-63
2022/08/09 08:42:55;;;;;;;1.77;1.67;;;23.20;57.70;;;;;;4994107;28;20132;-62
2022/08/09 08:45:31;;;;;;;1.73;1.63;;;23.40;57.50;;;;;;4991197;28;20534;-62
2022/08/09 08:47:57;;;;;;;1.60;1.50;;;23.40;56.80;;;;;;4993271;28;20038;-63
2022/08/09 08:50:23;;;;;;;1.70;1.60;;;23.60;57.00;;;;;;4992869;28;20450;-63
2022/08/09 08:52:51;;;;;;;1.60;1.50;;;23.60;56.40;;;;;;4990979;28;20038;-63
2022/08/09 08:55:17;;;;;;;1.90;1.80;;;23.80;56.50;;;;;;4993393;28;20038;-63
2022/08/09 08:57:43;;;;;;;1.55;1.45;;;23.90;56.60;;;;;;4992915;28;20100;-63
2022/08/09 09:00:09;;;;;;;1.75;1.42;;;23.90;55.80;;;;;;4988530;28;20069;-63
2022/08/09 09:02:37;;;;;;;1.45;1.30;;;24.00;55.20;;;;;;4992433;28;20042;-62
2022/08/09 09:05:03;;;;;;;3.05;1.38;;;24.10;54.50;;;;;;4991100;28;20066;-62
2022/08/09 09:07:30;;;;;;;1.67;1.33;;;24.20;54.30;;;;;;4994042;28;20108;-63
2022/08/09 09:09:57;;;;;;;1.58;1.48;;;24.30;54.00;;;;;;4991872;28;20034;-64
2022/08/09 09:12:28;;;;;;;1.55;1.13;;;24.40;53.90;;;;;;4987527;28;20033;-62
2022/08/09 09:14:57;;;;;;;1.65;1.20;;;24.40;53.20;;;;;;4988762;28;20051;-63
2022/08/09 09:17:23;;;;;;;1.73;1.20;;;24.50;52.70;;;;;;4992130;28;20037;-63
2022/08/09 09:19:50;;;;;;;1.30;1.20;;;24.60;52.70;;;;;;4991864;28;20100;-63
2022/08/09 09:22:20;;;;;;;1.30;1.00;;;24.70;52.60;;;;;;4990986;28;20033;-63
2022/08/09 09:24:48;;;;;;;2.90;1.20;;;24.80;52.30;;;;;;4990352;28;20412;-62
2022/08/09 09:27:24;;;;;;;1.55;1.20;;;24.90;52.00;;;;;;4991982;28;20054;-64
2022/08/09 09:29:50;;;;;;;1.40;1.13;;;25.00;50.90;;;;;;4993736;28;20030;-61
2022/08/09 09:32:26;;;;;;;2.15;1.20;;;25.10;51.00;;;;;;4992457;28;21398;-63
2022/08/09 09:35:23;;;;;;;1.10;1.10;;;25.30;49.50;;;;;;4992020;28;20054;-64
2022/08/09 09:37:52;;;;;;;1.50;1.30;;;25.30;49.80;;;;;;4984763;28;20030;-63
2022/08/09 09:40:18;;;;;;;2.65;0.95;;;25.40;50.00;;;;;;5005057;28;20407;-61
2022/08/09 09:42:55;;;;;;;2.03;0.90;;;25.50;49.70;;;;;;5011204;28;20056;-62
2022/08/09 09:45:22;;;;;;;1.13;0.95;;;25.60;48.90;;;;;;5009837;28;20500;-64
2022/08/09 09:47:48;;;;;;;1.67;1.00;;;25.70;49.40;;;;;;5012107;28;20042;-62
2022/08/09 09:50:20;;;;;;;1.38;1.08;;;25.80;49.00;;;;;;5010487;28;20045;-63
2022/08/09 09:52:51;;;;;;;3.03;1.00;;;25.90;48.60;;;;;;5011686;28;20042;-62
2022/08/09 09:55:16;;;;;;;1.20;1.10;;;25.90;47.70;;;;;;5010515;28;20501;-64
2022/08/09 09:57:59;;;;;;;2.72;1.08;;;26.00;47.60;;;;;;5002852;28;20053;-62
2022/08/09 10:00:25;;;;;;;2.03;1.08;;;26.10;47.00;;;;;;5007296;28;20041;-63
2022/08/09 10:02:50;;;;;;;1.10;1.02;;;26.20;47.80;;;;;;5012921;28;20433;-63
2022/08/09 10:05:16;;;;;;;2.17;1.02;;;26.20;47.50;;;;;;5009978;28;20037;-63
2022/08/09 10:07:41;;;;;;;1.27;1.00;;;26.30;47.70;;;;;;5011952;28;20049;-61
2022/08/09 10:10:07;;;;;;;3.22;1.10;;;26.40;47.70;;;;;;5010689;28;20042;-63
2022/08/09 10:12:37;;;;;;;2.10;1.10;;;26.50;47.50;;;;;;5006916;28;20042;-63
2022/08/09 10:15:14;;;;;;;1.00;1.00;;;26.50;46.70;;;;;;5009796;28;20056;-63
2022/08/09 10:17:42;;;;;;;2.08;1.10;;;26.60;46.20;;;;;;5011274;28;20042;-62
2022/08/09 10:20:16;;;;;;;1.13;1.10;;;26.60;46.80;;;;;;5010181;28;20038;-63
2022/08/09 10:22:42;;;;;;;;;;;26.70;46.00;;;;;;5012694;28;20123;-63
2022/08/09 10:25:08;;;;;;;1.92;1.00;;;26.80;47.60;;;;;;5009911;28;20026;-63
2022/08/09 10:27:35;;;;;;;1.25;1.10;;;26.80;47.00;;;;;;5013015;28;20037;-64
2022/08/09 10:30:05;;;;;;;2.20;1.20;;;26.90;46.50;;;;;;5012771;28;20030;-63
2022/08/09 10:32:33;;;;;;;1.75;1.20;;;26.90;45.20;;;;;;5016263;28;20038;-64
2022/08/09 10:34:59;;;;;;;2.08;1.00;;;27.00;45.90;;;;;;5013916;28;20040;-64
2022/08/09 10:37:26;;;;;;;4.35;1.20;;;27.00;45.70;;;;;;5014778;28;20454;-63
2022/08/09 10:39:52;;;;;;;1.70;1.00;;;27.00;45.40;;;;;;5016594;28;20042;-63
2022/08/09 10:42:19;;;;;;;1.13;0.90;;;27.10;45.20;;;;;;5014747;28;20053;-63
2022/08/09 10:44:52;;;;;;;1.20;1.10;;;27.10;45.00;;;;;;5014875;28;20120;-63
2022/08/09 10:47:27;;;;;;;1.35;0.98;;;27.10;45.00;;;;;;5011359;28;20049;-63
2022/08/09 10:50:01;;;;;;;;;;;27.20;44.30;;;;;;5016957;28;20536;-63
2022/08/09 10:52:45;;;;;;;1.23;0.90;;;27.20;46.10;;;;;;5014668;28;19918;-62
2022/08/09 10:55:28;;;;;;;2.83;1.20;;;27.30;44.00;;;;;;5012482;28;20041;-63
2022/08/09 10:57:55;;;;;;;2.42;1.10;;;27.30;44.00;;;;;;5017859;28;20057;-63
2022/08/09 11:00:31;;;;;;;2.05;1.10;;;27.30;44.90;;;;;;5013956;28;20034;-64
2022/08/09 11:02:57;;;;;;;1.70;0.90;;;27.30;44.00;;;;;;4992837;28;20033;-63
2022/08/09 11:05:24;;;;;;;1.80;0.95;;;27.30;44.30;;;;;;4992184;28;20414;-63
2022/08/09 11:07:49;;;;;;;1.20;0.80;;;27.40;43.90;;;;;;4995025;28;20077;-62
2022/08/09 11:10:36;;;;;;;1.15;1.00;;;27.40;43.30;;;;;;4993505;28;20482;-63
2022/08/09 11:13:18;;;;;;;1.65;0.95;;;27.40;44.00;;;;;;4992975;28;20053;-63
2022/08/09 11:15:44;;;;;;;1.48;1.10;;;27.40;43.20;;;;;;4993923;28;20030;-63
2022/08/09 11:18:30;;;;;;;1.13;1.05;;;27.50;44.00;;;;;;5008192;28;20041;-63
2022/08/09 11:20:55;;;;;;;1.13;1.02;;;27.50;43.20;;;;;;5013226;28;20040;-63
2022/08/09 11:23:22;;;;;;;1.48;1.00;;;27.50;43.50;;;;;;5012427;28;20287;-63
2022/08/09 11:25:48;;;;;;;1.35;1.10;;;27.50;43.30;;;;;;5014412;28;20036;-61
2022/08/09 11:28:32;;;;;;;1.35;0.90;;;27.60;43.20;;;;;;5011270;28;20448;-63
2022/08/09 11:30:58;;;;;;;1.08;0.98;;;27.60;43.00;;;;;;5010946;28;20175;-63
2022/08/09 11:33:47;;;;;;;1.58;1.00;;;27.70;43.40;;;;;;5014056;28;20078;-64
2022/08/09 11:36:14;;;;;;;1.10;0.93;;;27.70;42.20;;;;;;5012894;28;20497;-63
2022/08/09 11:38:40;;;;;;;1.33;0.88;;;27.80;42.30;;;;;;5013312;28;20050;-64
2022/08/09 11:41:15;;;;;;;2.33;1.25;;;27.80;42.50;;;;;;5016922;28;20453;-63
2022/08/09 11:43:41;;;;;;;8.57;1.10;;;27.80;41.60;;;;;;5015179;28;20137;-63
2022/08/09 11:46:08;;;;;;;0.90;0.90;;;27.80;41.90;;;;;;5012914;28;20457;-63
2022/08/09 11:48:56;;;;;;;1.63;0.80;;;27.90;42.50;;;;;;5013696;28;20060;-63
2022/08/09 11:51:26;;;;;;;1.45;0.90;;;27.80;41.20;;;;;;5013386;28;20121;-64
2022/08/09 11:54:17;;;;;;;0.88;0.82;;;27.80;41.70;;;;;;5012450;28;20085;-63
2022/08/09 11:56:43;;;;;;;2.53;0.90;;;27.90;41.40;;;;;;5010439;28;20061;-63
2022/08/09 11:59:10;;;;;;;1.77;0.80;;;27.90;42.20;;;;;;5012129;28;20056;-64
2022/08/09 12:01:39;;;;;;;1.00;1.00;;;27.90;42.50;;;;;;5011085;28;20037;-62
2022/08/09 12:04:10;;;;;;;1.08;0.90;;;27.90;42.00;;;;;;5014429;28;20079;-64
2022/08/09 12:06:36;;;;;;;1.00;0.95;;;28.00;40.60;;;;;;5011596;28;20029;-63
2022/08/09 12:09:11;;;;;;;1.45;0.80;;;28.00;41.40;;;;;;5014129;28;20113;-63
2022/08/09 12:11:36;;;;;;;;;;;28.00;40.60;;;;;;5008454;28;20085;-64
2022/08/09 12:14:09;;;;;;;1.40;0.80;;;28.10;42.40;;;;;;5014778;28;19917;-64
2022/08/09 12:16:37;;;;;;;1.10;1.00;;;28.10;41.20;;;;;;5012473;28;20041;-63
2022/08/09 12:19:05;;;;;;;1.25;0.90;;;28.10;41.20;;;;;;5015082;28;20513;-63
2022/08/09 12:21:37;;;;;;;2.35;0.90;;;28.10;41.20;;;;;;5012751;28;20038;-64
2022/08/09 12:24:05;;;;;;;0.93;0.88;;;28.10;40.30;;;;;;5013726;28;20034;-63
2022/08/09 12:26:44;;;;;;;1.13;0.80;;;28.10;40.70;;;;;;5011595;28;20031;-63
2022/08/09 12:29:18;;;;;;;2.13;1.13;;;28.10;40.50;;;;;;5011239;28;20030;-63
2022/08/09 12:31:45;;;;;;;2.60;1.10;;;28.00;40.70;;;;;;5012076;28;20030;-62
2022/08/09 12:34:11;;;;;;;1.02;0.82;;;28.10;40.60;;;;;;5011209;28;20030;-63
2022/08/09 12:36:52;;;;;;;1.10;1.00;;;28.10;41.20;;;;;;5012067;28;20057;-63
2022/08/09 12:39:18;;;;;;;1.20;1.00;;;28.10;40.70;;;;;;5010934;28;20121;-63
2022/08/09 12:41:43;;;;;;;1.00;0.90;;;28.10;41.10;;;;;;5013123;28;20125;-64
2022/08/09 12:44:09;;;;;;;0.95;0.95;;;28.10;40.70;;;;;;5011801;28;20112;-63
2022/08/09 12:46:35;;;;;;;1.13;1.00;;;28.10;40.70;;;;;;5011392;28;20382;-63
2022/08/09 12:49:02;;;;;;;1.05;0.95;;;28.20;41.10;;;;;;5012240;28;20392;-64
2022/08/09 12:51:27;;;;;;;1.30;1.00;;;28.20;41.00;;;;;;5011274;28;20034;-61
2022/08/09 12:53:59;;;;;;;0.90;0.90;;;28.10;40.90;;;;;;5013052;28;20100;-63
2022/08/09 12:56:25;;;;;;;2.45;0.90;;;28.20;40.70;;;;;;5011167;28;20502;-63